Bonifati, Italy

4:04 AM CEST on July 30, 2015 (GMT +0200)
Bisignano | | Change Station
CLOSE
Current Station
Personal Weather Station
Location: Bisignano, CALABRIA
Elevation: 738 ft
Nearby Weather Stations

Elev 738 ft 39.50 °N, 16.27 °E | Updated 5 seconds ago

Partly Cloudy
Partly Cloudy
73.6 °F
Feels Like 77 °F
N
0.0
Wind Variable Wind from South
Gusts 0.7 mph

Today
High -- | Low -- °F
--% Chance of Precip.
Yesterday
High -- | Low -- °F
Precip. -- in
5:53 AM 8:11 PM
Waxing Gibbous, 97% visible
Pressure 29.86 in
Visibility 6.2 miles
Clouds Few 2500 ft
Heat Index 77 °F
Dew Point 48 °F
Humidity 41%
Rainfall 0.00 in
Snow Depth Not available.
UV 0.0 out of 12
Pollen Not available.
Air Quality Not available.
Flu Activity Not available.
METAR LICA 300050Z 27006KT 9999 FEW025 26/22 Q1011

More Conditions Fewer Conditions

Pressure 29.86 in
Visibility 6.2 miles
Clouds Few 2500 ft
Heat Index 77 °F
Dew Point 48 °F
Humidity 41%
Rainfall 0.00 in
Snow Depth Not available.
UV 0.0 out of 12
Pollen Not available.
Air Quality Not available.
Flu Activity Not available.
METAR LICA 300050Z 27006KT 9999 FEW025 26/22 Q1011

More Conditions Fewer Conditions

10-Day Weather Forecast

×

Almanac

Astronomy

Jul. 30, 2015 Rise Set
Actual Time
Civil Twilight
Nautical Twilight
Astronomical Twilight
Moon
Length of Visible Light
Length of Day
Tomorrow will be .
, % of the Moon is Illuminated

Today's Extremes

Country Highs Country Lows

Community

WunderPhotos

Upload Photos

1,842,259 photos uploaded!

WunderBlogs® & News

Nearby

Air Quality

  Air Quality AQ Index Pollutant
Not available.

Snow Depth

Station Depth Elevation

Earthquake Activity

City Distance Mag. Time & Date
Minimum magnitude displayed is 2.5.

Coastal Water Temperatures

Place Temperature

Stations

Nearby Weather Stations

Station Location Temp. Windchill Dew Point Humidity Wind Precip. Elev Updated Type